Gafsa, Tunisia
Current Conditions -  °F | °C
As of 3:00 PM on Thursday 27 Nov 2014 (Local Time) from DTTF Reporting Station
Scattered Clouds Scattered Clouds  
Wind Chill: 73°   Ceiling: Unl
Heat Index: 73°   Visibility: 6mi
Dew Point: 50°   Wind: 9mph
Humidity: 44%   Direction: 170°S
Pressure: 29.77"   Gusts: NA
Location:  34.42°N, 8.79°E
Report Text: DTTF 271400Z 17008KT 9999 SCT023 23/10 Q1008 NOSIG
Loading
Personal Weather Stations






























Interactive Weather Map New forecast layout! Learn more

10-Day Weather Forecast

Advertisements
Track Severe Weather on mobile